createdAt,value
2023-02-17T00:01:33.663Z,77.24
2023-02-17T00:04:02.047Z,77.66
2023-02-17T00:06:30.825Z,77.20
2023-02-17T00:08:59.009Z,77.11
2023-02-17T00:11:27.155Z,77.51
2023-02-17T00:13:56.433Z,77.36
2023-02-17T00:16:26.371Z,76.93
2023-02-17T00:18:56.388Z,77.02
2023-02-17T00:21:25.816Z,77.37
2023-02-17T00:23:54.129Z,77.39
2023-02-17T00:26:22.217Z,76.95
2023-02-17T00:28:50.196Z,77.36
2023-02-17T00:31:20.614Z,77.23
2023-02-17T00:33:49.016Z,77.41
2023-02-17T00:36:19.319Z,77.22
2023-02-17T00:38:47.880Z,77.80
2023-02-17T00:41:16.977Z,77.72
2023-02-17T00:43:44.734Z,77.03
2023-02-17T00:46:12.469Z,76.92
2023-02-17T00:48:41.077Z,77.02
2023-02-17T00:51:09.779Z,76.75
2023-02-17T00:53:37.730Z,77.13
2023-02-17T00:56:08.355Z,76.99
2023-02-17T00:58:36.745Z,76.68
2023-02-17T01:01:05.227Z,76.58
2023-02-17T01:03:33.750Z,76.59
2023-02-17T01:06:06.101Z,77.44
2023-02-17T01:08:35.437Z,77.68
2023-02-17T01:11:03.367Z,77.53
2023-02-17T01:13:32.727Z,77.35
2023-02-17T01:16:00.701Z,77.66
2023-02-17T01:18:28.434Z,77.78
2023-02-17T01:20:56.059Z,78.06
2023-02-17T01:23:24.094Z,77.61
2023-02-17T01:25:53.382Z,77.68
2023-02-17T01:28:23.101Z,77.92
2023-02-17T01:30:51.103Z,77.96
2023-02-17T01:33:18.724Z,78.39
2023-02-17T01:35:46.489Z,79.24
2023-02-17T01:38:14.513Z,79.20
2023-02-17T01:40:47.666Z,79.49
2023-02-17T01:43:17.311Z,79.35
2023-02-17T01:45:52.752Z,79.75
2023-02-17T01:48:23.147Z,79.70
2023-02-17T01:50:55.788Z,80.40
2023-02-17T01:53:32.314Z,80.07
2023-02-17T01:55:59.998Z,79.31
2023-02-17T01:58:28.535Z,79.17
2023-02-17T02:00:59.200Z,78.96
2023-02-17T02:03:28.468Z,78.52
2023-02-17T02:05:56.140Z,78.91
2023-02-17T02:08:24.018Z,78.62
2023-02-17T02:10:52.610Z,78.46
2023-02-17T02:13:20.396Z,78.30
2023-02-17T02:15:54.865Z,77.79
2023-02-17T02:18:34.036Z,77.74
2023-02-17T02:21:20.813Z,77.54
2023-02-17T02:24:10.172Z,78.13
2023-02-17T02:27:09.067Z,78.08
2023-02-17T02:29:48.125Z,78.06
2023-02-17T02:32:35.393Z,78.32
2023-02-17T02:35:11.823Z,78.32
2023-02-17T02:37:47.329Z,78.57
2023-02-17T02:40:16.995Z,78.58
2023-02-17T02:42:45.160Z,78.48
2023-02-17T02:45:12.921Z,78.32
2023-02-17T02:47:43.712Z,78.26
2023-02-17T02:50:13.482Z,78.79
2023-02-17T02:52:53.555Z,78.66
2023-02-17T02:55:22.813Z,79.30
2023-02-17T02:57:57.864Z,79.01
2023-02-17T03:00:41.692Z,80.60
2023-02-17T03:03:17.851Z,80.28
2023-02-17T03:06:00.156Z,80.90
2023-02-17T03:08:38.403Z,80.71
2023-02-17T03:11:06.805Z,80.17
2023-02-17T03:13:35.687Z,79.70
2023-02-17T03:16:03.723Z,79.48
2023-02-17T03:18:33.224Z,79.16
2023-02-17T03:21:08.998Z,79.26
2023-02-17T03:23:37.035Z,79.50
2023-02-17T03:26:05.142Z,79.56
2023-02-17T03:28:33.357Z,79.41
2023-02-17T03:31:02.100Z,79.71
2023-02-17T03:33:30.109Z,79.70
2023-02-17T03:35:57.799Z,79.72
2023-02-17T03:38:25.873Z,79.58
2023-02-17T03:40:53.701Z,79.45
2023-02-17T03:43:21.340Z,79.48
2023-02-17T03:45:49.411Z,79.19
2023-02-17T03:48:17.296Z,79.35
2023-02-17T03:50:44.906Z,78.88
2023-02-17T03:53:12.999Z,79.12
2023-02-17T03:55:40.818Z,79.58
2023-02-17T03:58:08.447Z,79.58
2023-02-17T04:00:36.487Z,79.97
2023-02-17T04:03:04.475Z,79.97
2023-02-17T04:05:32.226Z,79.78
2023-02-17T04:07:59.864Z,79.96
2023-02-17T04:10:27.893Z,80.09
2023-02-17T04:12:55.561Z,79.98
2023-02-17T04:15:23.229Z,79.27
2023-02-17T04:17:51.198Z,79.91
2023-02-17T04:20:18.918Z,79.82
2023-02-17T04:22:46.687Z,79.67
2023-02-17T04:25:14.734Z,79.66
2023-02-17T04:27:42.597Z,79.61
2023-02-17T04:30:12.427Z,80.27
2023-02-17T04:32:40.618Z,80.60
2023-02-17T04:35:08.407Z,79.97
2023-02-17T04:37:36.204Z,80.29
2023-02-17T04:40:04.607Z,80.31
2023-02-17T04:42:32.814Z,79.91
2023-02-17T04:45:00.460Z,79.81
2023-02-17T04:47:28.436Z,80.00
2023-02-17T04:49:56.176Z,80.02
2023-02-17T04:52:23.966Z,79.82
2023-02-17T04:54:52.016Z,80.40
2023-02-17T04:57:19.664Z,79.97
2023-02-17T04:59:47.499Z,80.28
2023-02-17T05:02:15.437Z,79.62
2023-02-17T05:04:45.666Z,79.82
2023-02-17T05:07:13.599Z,79.84
2023-02-17T05:09:41.925Z,80.25
2023-02-17T05:12:09.603Z,79.87
2023-02-17T05:14:37.241Z,80.73
2023-02-17T05:17:05.436Z,80.85
2023-02-17T05:19:33.217Z,80.21
2023-02-17T05:22:00.895Z,81.68
2023-02-17T05:24:28.810Z,80.50
2023-02-17T05:26:56.469Z,80.98
2023-02-17T05:29:24.191Z,80.69
2023-02-17T05:31:52.081Z,80.85
2023-02-17T05:34:19.758Z,81.56
2023-02-17T05:36:47.422Z,81.42
2023-02-17T05:39:15.840Z,80.89
2023-02-17T05:41:44.081Z,80.56
2023-02-17T05:44:11.713Z,80.56
2023-02-17T05:46:39.837Z,80.73
2023-02-17T05:49:07.653Z,80.72
2023-02-17T05:51:35.878Z,80.58
2023-02-17T05:54:03.833Z,80.68
2023-02-17T05:56:31.499Z,80.83
2023-02-17T05:58:59.151Z,80.73
2023-02-17T06:01:27.897Z,80.32
2023-02-17T06:03:55.931Z,80.47
2023-02-17T06:06:23.694Z,80.55
2023-02-17T06:08:51.604Z,80.29
2023-02-17T06:11:20.357Z,80.41
2023-02-17T06:13:51.038Z,80.31
2023-02-17T06:16:19.874Z,80.07
2023-02-17T06:18:47.455Z,80.52
2023-02-17T06:21:15.389Z,81.04
2023-02-17T06:23:44.325Z,80.62
2023-02-17T06:26:12.060Z,80.57
2023-02-17T06:28:39.793Z,80.56
2023-02-17T06:31:08.339Z,81.49
2023-02-17T06:33:36.084Z,80.97
2023-02-17T06:36:04.087Z,80.41
2023-02-17T06:38:32.269Z,80.83
2023-02-17T06:41:00.135Z,80.89
2023-02-17T06:43:27.780Z,80.51
2023-02-17T06:45:55.663Z,79.93
2023-02-17T06:48:23.288Z,79.36
2023-02-17T06:50:50.921Z,79.36
2023-02-17T06:53:18.833Z,80.16
2023-02-17T06:55:46.478Z,79.80
2023-02-17T06:58:14.130Z,79.98
2023-02-17T07:00:42.511Z,80.39
2023-02-17T07:03:10.277Z,78.66
2023-02-17T07:05:38.253Z,78.13
2023-02-17T07:08:06.472Z,77.74
2023-02-17T07:10:34.508Z,77.60
2023-02-17T07:13:02.243Z,77.43
2023-02-17T07:15:30.312Z,77.37
2023-02-17T07:17:57.998Z,77.88
2023-02-17T07:20:25.726Z,77.53
2023-02-17T07:22:53.703Z,77.02
2023-02-17T07:25:21.340Z,76.53
2023-02-17T07:27:49.026Z,77.12
2023-02-17T07:30:17.449Z,76.75
2023-02-17T07:32:45.143Z,76.23
2023-02-17T07:35:13.318Z,75.40
2023-02-17T07:37:41.720Z,75.91
2023-02-17T07:40:09.680Z,76.96
2023-02-17T07:42:37.417Z,75.63
2023-02-17T07:45:05.922Z,75.12
2023-02-17T07:47:33.595Z,74.53
2023-02-17T07:50:01.257Z,74.05
2023-02-17T07:52:29.245Z,75.02
2023-02-17T07:54:57.048Z,75.90
2023-02-17T07:57:24.748Z,75.72
2023-02-17T07:59:52.655Z,75.63
2023-02-17T08:02:20.295Z,76.03
2023-02-17T08:04:48.576Z,75.63
2023-02-17T08:07:16.294Z,77.21
2023-02-17T08:09:44.345Z,77.06
2023-02-17T08:12:17.282Z,77.01
2023-02-17T08:14:44.896Z,78.51
2023-02-17T08:17:12.909Z,76.81
2023-02-17T08:19:48.462Z,76.53
2023-02-17T08:22:17.645Z,75.06
2023-02-17T08:24:45.274Z,74.44
2023-02-17T08:27:15.063Z,73.90
2023-02-17T08:29:43.343Z,73.55
2023-02-17T08:32:12.877Z,72.62
2023-02-17T08:34:40.754Z,72.32
2023-02-17T08:37:08.853Z,71.92
2023-02-17T08:39:37.374Z,72.70
2023-02-17T08:42:05.845Z,72.72
2023-02-17T08:44:36.048Z,73.15
2023-02-17T08:47:05.229Z,73.88
2023-02-17T08:49:33.391Z,73.86
2023-02-17T08:52:00.996Z,74.20
2023-02-17T08:54:29.053Z,73.29
2023-02-17T08:56:57.106Z,73.37
2023-02-17T08:59:24.789Z,72.29
2023-02-17T09:01:52.470Z,71.60
2023-02-17T09:04:20.966Z,70.76
2023-02-17T09:06:51.341Z,71.52
2023-02-17T09:09:21.604Z,70.63
2023-02-17T09:11:49.658Z,70.09
2023-02-17T09:14:17.405Z,69.26
2023-02-17T09:16:45.072Z,70.27
2023-02-17T09:19:13.059Z,68.76
2023-02-17T09:21:40.931Z,68.23
2023-02-17T09:24:08.732Z,70.06
2023-02-17T09:26:36.857Z,68.16
2023-02-17T09:29:05.188Z,66.99
2023-02-17T09:31:34.669Z,67.09
2023-02-17T09:34:03.089Z,65.58
2023-02-17T09:36:38.476Z,65.07
2023-02-17T09:39:07.540Z,65.42
2023-02-17T09:41:39.804Z,63.88
2023-02-17T09:44:17.189Z,63.82
2023-02-17T09:47:01.376Z,63.92
2023-02-17T09:49:38.932Z,62.52
2023-02-17T09:52:25.588Z,61.00
2023-02-17T09:55:24.051Z,61.32
2023-02-17T09:57:58.757Z,58.53
2023-02-17T10:00:33.521Z,57.01
2023-02-17T10:03:10.317Z,57.17
2023-02-17T10:05:49.228Z,57.11
2023-02-17T10:08:19.771Z,57.00
2023-02-17T10:10:59.721Z,55.47
2023-02-17T10:13:31.540Z,56.04
2023-02-17T10:16:04.376Z,56.13
2023-02-17T10:18:44.214Z,55.67
2023-02-17T10:21:20.477Z,56.15
2023-02-17T10:23:48.475Z,56.95
2023-02-17T10:26:24.918Z,56.97
2023-02-17T10:29:04.502Z,55.64
2023-02-17T10:31:56.633Z,56.78
2023-02-17T10:34:53.115Z,56.78
2023-02-17T10:37:29.994Z,56.86
2023-02-17T10:39:58.517Z,56.74
2023-02-17T10:42:35.766Z,56.80
2023-02-17T10:45:06.854Z,57.17
2023-02-17T10:47:36.914Z,56.99
2023-02-17T10:50:14.024Z,57.63
2023-02-17T10:52:41.986Z,58.42
2023-02-17T10:55:23.203Z,57.91
2023-02-17T10:57:55.922Z,57.69
2023-02-17T11:00:24.090Z,57.61
2023-02-17T11:02:52.809Z,57.82
2023-02-17T11:05:24.864Z,57.99
2023-02-17T11:08:04.626Z,57.91
2023-02-17T11:10:37.620Z,58.06
2023-02-17T11:13:28.385Z,57.59
2023-02-17T11:15:56.183Z,57.78
2023-02-17T11:18:32.052Z,57.47
2023-02-17T11:21:08.978Z,56.68
2023-02-17T11:23:51.815Z,55.86
2023-02-17T11:26:24.918Z,56.44
2023-02-17T11:28:53.127Z,55.91
2023-02-17T11:31:24.201Z,57.22
2023-02-17T11:33:51.892Z,57.68
2023-02-17T11:36:24.401Z,57.24
2023-02-17T11:38:52.383Z,56.56
2023-02-17T11:41:20.951Z,56.14
2023-02-17T11:43:57.178Z,55.97
2023-02-17T11:46:31.992Z,56.21
2023-02-17T11:49:02.549Z,56.37
2023-02-17T11:51:39.456Z,55.55
2023-02-17T11:54:18.933Z,56.68
2023-02-17T11:56:59.653Z,57.75
2023-02-17T11:59:58.577Z,57.61
2023-02-17T12:02:45.462Z,57.57
2023-02-17T12:05:26.570Z,57.07
2023-02-17T12:08:03.429Z,57.04
2023-02-17T12:10:39.218Z,55.88
2023-02-17T12:13:12.805Z,58.38
2023-02-17T12:15:52.470Z,57.64
2023-02-17T12:18:33.795Z,56.01
2023-02-17T12:21:12.220Z,56.29
2023-02-17T12:23:52.180Z,57.29
2023-02-17T12:26:46.834Z,59.05
2023-02-17T12:29:26.643Z,59.51
2023-02-17T12:32:17.318Z,60.59
2023-02-17T12:34:55.342Z,61.37
2023-02-17T12:37:27.430Z,61.51
2023-02-17T12:39:59.619Z,60.95
2023-02-17T12:42:45.011Z,63.69
2023-02-17T12:45:20.120Z,63.16
2023-02-17T12:48:14.182Z,63.49
2023-02-17T12:50:54.906Z,62.25
2023-02-17T12:53:37.788Z,62.55
2023-02-17T12:56:28.081Z,63.95
2023-02-17T12:58:59.282Z,62.99
2023-02-17T13:01:31.439Z,61.95
2023-02-17T13:04:00.102Z,62.04
2023-02-17T13:06:37.403Z,64.03
2023-02-17T13:09:17.491Z,64.13
2023-02-17T13:11:45.124Z,63.33
2023-02-17T13:14:25.851Z,63.72
2023-02-17T13:16:54.261Z,63.34
2023-02-17T13:19:34.003Z,63.59
2023-02-17T13:22:02.422Z,62.40
2023-02-17T13:24:31.917Z,61.98
2023-02-17T13:27:12.937Z,61.46
2023-02-17T13:29:41.096Z,61.38
2023-02-17T13:32:14.024Z,60.85
2023-02-17T13:34:44.570Z,60.98
2023-02-17T13:37:31.871Z,60.75
2023-02-17T13:40:01.161Z,62.60
2023-02-17T13:42:43.286Z,62.36
2023-02-17T13:45:15.052Z,62.06
2023-02-17T13:47:46.026Z,61.71
2023-02-17T13:50:33.513Z,61.14
2023-02-17T13:53:02.963Z,62.82
2023-02-17T13:55:30.977Z,63.45
2023-02-17T13:57:59.428Z,63.79
2023-02-17T14:00:27.690Z,63.61
2023-02-17T14:03:13.566Z,66.71
2023-02-17T14:05:46.549Z,66.84
2023-02-17T14:08:23.094Z,67.02
2023-02-17T14:10:51.230Z,66.47
2023-02-17T14:13:18.972Z,65.52
2023-02-17T14:15:58.044Z,66.13
2023-02-17T14:18:38.071Z,64.78
2023-02-17T14:21:13.038Z,65.51
2023-02-17T14:23:49.807Z,65.07
2023-02-17T14:26:43.356Z,65.83
2023-02-17T14:29:12.225Z,65.29
2023-02-17T14:31:50.934Z,65.54
2023-02-17T14:34:32.248Z,65.35
2023-02-17T14:37:09.936Z,66.11
2023-02-17T14:39:38.089Z,65.75
2023-02-17T14:42:05.824Z,64.54
2023-02-17T14:44:33.627Z,65.02
2023-02-17T14:47:01.850Z,67.42
2023-02-17T14:49:29.477Z,66.41
2023-02-17T14:51:57.274Z,66.56
2023-02-17T14:54:27.110Z,66.81
2023-02-17T14:57:11.302Z,67.36
2023-02-17T14:59:39.531Z,66.76
2023-02-17T15:02:19.159Z,65.89
2023-02-17T15:04:47.383Z,66.06
2023-02-17T15:07:17.236Z,66.50
2023-02-17T15:09:47.356Z,66.04
2023-02-17T15:12:21.718Z,66.03
2023-02-17T15:14:49.630Z,66.29
2023-02-17T15:17:17.678Z,65.93
2023-02-17T15:19:45.533Z,66.21
2023-02-17T15:22:14.070Z,66.04
2023-02-17T15:24:42.159Z,65.82
2023-02-17T15:27:14.661Z,66.02
2023-02-17T15:29:42.971Z,66.04
2023-02-17T15:32:17.857Z,66.89
2023-02-17T15:34:45.826Z,66.79
2023-02-17T15:37:13.490Z,67.25
2023-02-17T15:39:41.911Z,67.07
2023-02-17T15:42:13.055Z,67.28
2023-02-17T15:44:47.215Z,67.92
2023-02-17T15:47:19.288Z,68.39
2023-02-17T15:49:48.596Z,68.52
2023-02-17T15:52:17.406Z,68.16
2023-02-17T15:54:45.195Z,68.45
2023-02-17T15:57:24.341Z,68.98
2023-02-17T15:59:52.648Z,68.45
2023-02-17T16:02:26.440Z,67.77
2023-02-17T16:04:54.537Z,68.91
2023-02-17T16:07:22.402Z,68.40
2023-02-17T16:09:50.853Z,69.76
2023-02-17T16:12:20.238Z,70.86
2023-02-17T16:14:48.034Z,69.31
2023-02-17T16:17:16.472Z,69.69
2023-02-17T16:19:44.677Z,70.96
2023-02-17T16:22:12.447Z,72.93
2023-02-17T16:24:40.730Z,71.60
2023-02-17T16:27:12.970Z,72.65
2023-02-17T16:29:42.832Z,71.49
2023-02-17T16:32:12.025Z,71.94
2023-02-17T16:34:40.204Z,71.92
2023-02-17T16:37:16.472Z,72.25
2023-02-17T16:39:44.673Z,73.65
2023-02-17T16:42:12.877Z,72.24
2023-02-17T16:44:41.032Z,73.00
2023-02-17T16:47:18.375Z,72.67
2023-02-17T16:49:47.459Z,72.61
2023-02-17T16:52:26.714Z,72.94
2023-02-17T16:54:54.684Z,74.29
2023-02-17T16:57:22.760Z,74.53
2023-02-17T16:59:50.712Z,73.84
2023-02-17T17:02:20.223Z,74.23
2023-02-17T17:04:49.515Z,73.68
2023-02-17T17:07:17.403Z,74.02
2023-02-17T17:10:06.952Z,74.89
2023-02-17T17:12:35.683Z,74.51
2023-02-17T17:15:04.174Z,74.76
2023-02-17T17:17:49.165Z,74.44
2023-02-17T17:20:20.236Z,74.23
2023-02-17T17:22:48.166Z,74.49
2023-02-17T17:25:16.394Z,74.96
2023-02-17T17:27:44.928Z,75.93
2023-02-17T17:30:19.799Z,75.44
2023-02-17T17:32:48.364Z,75.23
2023-02-17T17:35:17.055Z,75.06
2023-02-17T17:37:45.036Z,75.17
2023-02-17T17:40:18.400Z,74.96
2023-02-17T17:42:46.486Z,75.19
2023-02-17T17:45:15.133Z,75.47
2023-02-17T17:47:43.316Z,75.44
2023-02-17T17:50:16.456Z,75.35
2023-02-17T17:52:46.017Z,75.72
2023-02-17T17:55:14.627Z,75.66
2023-02-17T17:57:43.396Z,75.92
2023-02-17T18:00:16.506Z,75.86
2023-02-17T18:02:44.883Z,75.94
2023-02-17T18:05:13.538Z,76.46
2023-02-17T18:07:46.864Z,76.64
2023-02-17T18:10:15.498Z,76.76
2023-02-17T18:12:44.663Z,77.11
2023-02-17T18:15:12.392Z,77.50
2023-02-17T18:17:41.643Z,78.20
2023-02-17T18:20:11.516Z,78.25
2023-02-17T18:22:39.796Z,78.66
2023-02-17T18:25:08.192Z,79.05
2023-02-17T18:27:44.855Z,79.00
2023-02-17T18:30:16.801Z,79.11
2023-02-17T18:32:45.109Z,79.04
2023-02-17T18:35:13.606Z,78.85
2023-02-17T18:37:41.740Z,79.34
2023-02-17T18:40:13.717Z,78.95
2023-02-17T18:42:42.700Z,79.08
2023-02-17T18:45:10.849Z,78.74
2023-02-17T18:47:38.785Z,79.11
2023-02-17T18:50:08.900Z,79.28
2023-02-17T18:52:38.415Z,78.52
2023-02-17T18:55:07.013Z,77.88
2023-02-17T18:57:35.388Z,77.75
2023-02-17T19:00:06.489Z,77.85
2023-02-17T19:02:37.084Z,77.85
2023-02-17T19:05:06.641Z,78.36
2023-02-17T19:07:35.358Z,78.59
2023-02-17T19:10:04.396Z,79.44
2023-02-17T19:12:35.199Z,78.91
2023-02-17T19:15:04.684Z,78.96
2023-02-17T19:17:32.576Z,78.54
2023-02-17T19:20:00.617Z,78.19
2023-02-17T19:22:30.316Z,77.82
2023-02-17T19:24:58.335Z,78.54
2023-02-17T19:27:26.376Z,78.57
2023-02-17T19:29:55.284Z,78.57
2023-02-17T19:32:23.354Z,78.03
2023-02-17T19:34:51.075Z,77.16
2023-02-17T19:37:21.049Z,77.17
2023-02-17T19:39:49.127Z,77.25
2023-02-17T19:42:18.999Z,76.64
2023-02-17T19:44:48.004Z,76.36
2023-02-17T19:47:16.074Z,75.80
2023-02-17T19:49:44.363Z,75.65
2023-02-17T19:52:12.554Z,75.59
2023-02-17T19:54:40.273Z,75.28
2023-02-17T19:57:08.258Z,75.36
2023-02-17T19:59:36.566Z,74.57
2023-02-17T20:02:04.671Z,74.78
2023-02-17T20:04:32.900Z,74.75
2023-02-17T20:07:00.645Z,74.74
2023-02-17T20:09:28.311Z,74.77
2023-02-17T20:11:56.663Z,75.25
2023-02-17T20:14:24.661Z,75.17
2023-02-17T20:16:52.658Z,76.73
2023-02-17T20:19:23.456Z,77.10
2023-02-17T20:21:51.678Z,76.51
2023-02-17T20:24:20.648Z,75.95
2023-02-17T20:26:49.497Z,75.17
2023-02-17T20:29:17.406Z,75.49
2023-02-17T20:31:45.431Z,74.91
2023-02-17T20:34:35.188Z,75.15
2023-02-17T20:37:03.227Z,74.92
2023-02-17T20:39:31.409Z,74.78
2023-02-17T20:42:00.370Z,74.49
2023-02-17T20:44:28.431Z,74.35
2023-02-17T20:47:03.353Z,74.53
2023-02-17T20:49:31.701Z,74.14
2023-02-17T20:51:59.764Z,73.58
2023-02-17T20:54:27.647Z,73.96
2023-02-17T20:56:55.359Z,73.32
2023-02-17T20:59:23.683Z,73.58
2023-02-17T21:01:51.925Z,73.94
2023-02-17T21:04:19.620Z,73.96
2023-02-17T21:06:48.202Z,73.28
2023-02-17T21:09:17.989Z,72.95
2023-02-17T21:11:46.748Z,73.76
2023-02-17T21:14:14.909Z,72.97
2023-02-17T21:16:43.272Z,72.84
2023-02-17T21:19:11.413Z,72.28
2023-02-17T21:21:40.289Z,72.29
2023-02-17T21:24:08.235Z,72.54
2023-02-17T21:26:36.171Z,72.28
2023-02-17T21:29:04.570Z,72.68
2023-02-17T21:31:32.678Z,71.93
2023-02-17T21:34:00.572Z,71.43
2023-02-17T21:36:29.513Z,71.93
2023-02-17T21:38:57.869Z,71.19
2023-02-17T21:41:25.687Z,71.27
2023-02-17T21:43:54.395Z,71.86
2023-02-17T21:46:22.824Z,70.99
2023-02-17T21:48:52.886Z,71.24
2023-02-17T21:51:21.313Z,71.30
2023-02-17T21:53:48.980Z,71.36
2023-02-17T21:56:16.733Z,71.23
2023-02-17T21:58:49.457Z,70.79
2023-02-17T22:01:17.857Z,70.32
2023-02-17T22:03:45.916Z,70.51
2023-02-17T22:06:14.902Z,70.01
2023-02-17T22:08:43.014Z,70.55
2023-02-17T22:11:15.602Z,69.71
2023-02-17T22:13:44.118Z,69.27
2023-02-17T22:16:12.312Z,69.13
2023-02-17T22:18:40.058Z,68.95
2023-02-17T22:21:12.768Z,69.02
2023-02-17T22:23:41.963Z,70.55
2023-02-17T22:26:12.574Z,70.03
2023-02-17T22:28:41.078Z,70.95
2023-02-17T22:31:08.844Z,70.85
2023-02-17T22:33:36.498Z,71.55
2023-02-17T22:36:08.038Z,71.07
2023-02-17T22:38:35.621Z,70.36
2023-02-17T22:41:07.574Z,68.55
2023-02-17T22:43:37.546Z,67.91
2023-02-17T22:46:06.298Z,67.41
2023-02-17T22:48:36.983Z,67.41
2023-02-17T22:51:06.531Z,67.55
2023-02-17T22:53:35.298Z,67.11
2023-02-17T22:56:04.217Z,67.40
2023-02-17T22:58:32.587Z,67.87
2023-02-17T23:01:09.711Z,67.81
2023-02-17T23:03:37.954Z,67.44
2023-02-17T23:06:12.914Z,66.86
2023-02-17T23:08:41.211Z,67.07
2023-02-17T23:11:11.035Z,66.52
2023-02-17T23:13:39.251Z,66.02
2023-02-17T23:16:08.217Z,65.55
2023-02-17T23:18:36.652Z,65.35
2023-02-17T23:21:10.752Z,65.70
2023-02-17T23:23:38.723Z,64.82
2023-02-17T23:26:07.244Z,64.53
2023-02-17T23:28:35.114Z,64.45
2023-02-17T23:31:03.230Z,64.19
2023-02-17T23:33:31.108Z,63.75
2023-02-17T23:35:58.710Z,63.71
2023-02-17T23:38:26.769Z,64.05
2023-02-17T23:40:54.527Z,64.79
2023-02-17T23:43:22.269Z,64.71
2023-02-17T23:45:50.321Z,64.83
2023-02-17T23:48:18.246Z,64.91
2023-02-17T23:50:46.006Z,65.88
2023-02-17T23:53:14.211Z,64.48
2023-02-17T23:55:41.998Z,64.56
2023-02-17T23:58:09.626Z,64.75
